Huvudsida
METAR-TAF:

METAR-TAF

Flygplatser :

Kairos internationella flygplats

Kairo, Egypten

latitud: 30-08N, longitud: 031-24E, höjd: 64 m

Aktuellt väderrapport

Denna rapport gjordes för 1 timme och 48 minuter sedan, klockan 00:00 UTC
Vind 10 kt från väst/sydväst
Temperatur 13°C
Fuktighet 67%
Tryck 1019 hPa
Sikt 10 km eller mer
Få moln på en höjd av 2500 ft
Spridda moln på en höjd av 7000 ft

METAR: HECA 190000Z 25010KT 9999 FEW025 SCT070 13/07 Q1019 NOSIG

Tid: 03:48 (01:48 UTC)

Väderprognos

Denna rapport gjordes för 2 timmar och 48 minuter sedan, klockan 23:00 UTC
Prognos gäller från 19 kl. 00 UTC till 20 kl. 06 UTC
Vind 8 kt från väst/sydväst
Sikt 10 km eller mer
Spridda moln på en höjd av 2500 ft
Spridda moln på en höjd av 7000 ft
Temporärt
från 19 kl. 00 UTC till 19 kl. 06 UTC
Sikt: 4000 m
Brutna moln på en höjd av 2500 ft
Brutna moln på en höjd av 7000 ft
regn

TAF: HECA 182300Z 1900/2006 25008KT 9999 SCT025 SCT070 TEMPO 1900/1906 4000 RA BKN025 BKN070

Aktuella väderrapporter och prognoser från 4000 flygplatser (METAR- och TAF-rapporter).

De tillgängliga stationerna syns som gula och röda prickar på kartan.

För musen över prickarna för att se namnen på stationerna.

Klicka sedan för att få väderrapporter och prognoser.

För att ändra kartan: Klicka på de gröna knapparna med ett svart kors på för att zooma in; den gröna knappen med ett streck på för att zooma ut; eller på de gröna pilarna för angränsande kartor.


METAR-TAF: